sensor_id;sensor_type;location;lat;lon;timestamp;P1;durP1;ratioP1;P2;durP2;ratioP2
32108;SDS011;18624;50.042;8.436;2023-02-22T00:00:29;16.10;;;11.25;;
32108;SDS011;18624;50.042;8.436;2023-02-22T00:05:54;13.88;;;11.48;;
32108;SDS011;18624;50.042;8.436;2023-02-22T00:08:25;15.45;;;11.93;;
32108;SDS011;18624;50.042;8.436;2023-02-22T00:10:59;15.60;;;11.38;;
32108;SDS011;18624;50.042;8.436;2023-02-22T00:13:28;14.95;;;12.15;;
32108;SDS011;18624;50.042;8.436;2023-02-22T00:15:55;16.75;;;12.00;;
32108;SDS011;18624;50.042;8.436;2023-02-22T00:18:23;17.65;;;12.77;;
32108;SDS011;18624;50.042;8.436;2023-02-22T00:20:53;19.00;;;14.13;;
32108;SDS011;18624;50.042;8.436;2023-02-22T00:23:21;21.38;;;15.98;;
32108;SDS011;18624;50.042;8.436;2023-02-22T00:25:48;27.40;;;15.85;;
32108;SDS011;18624;50.042;8.436;2023-02-22T00:28:16;23.67;;;15.63;;
32108;SDS011;18624;50.042;8.436;2023-02-22T00:30:44;23.52;;;17.10;;
32108;SDS011;18624;50.042;8.436;2023-02-22T00:33:11;22.58;;;15.25;;
32108;SDS011;18624;50.042;8.436;2023-02-22T00:35:38;22.95;;;16.45;;
32108;SDS011;18624;50.042;8.436;2023-02-22T00:38:05;20.75;;;16.45;;
32108;SDS011;18624;50.042;8.436;2023-02-22T00:40:33;22.52;;;17.05;;
32108;SDS011;18624;50.042;8.436;2023-02-22T00:43:00;20.08;;;15.52;;
32108;SDS011;18624;50.042;8.436;2023-02-22T00:45:29;23.45;;;17.52;;
32108;SDS011;18624;50.042;8.436;2023-02-22T00:47:57;24.02;;;17.15;;
32108;SDS011;18624;50.042;8.436;2023-02-22T00:50:25;21.48;;;16.20;;
32108;SDS011;18624;50.042;8.436;2023-02-22T00:52:55;21.08;;;17.35;;
32108;SDS011;18624;50.042;8.436;2023-02-22T00:55:23;22.65;;;16.05;;
32108;SDS011;18624;50.042;8.436;2023-02-22T00:57:55;18.45;;;14.32;;
32108;SDS011;18624;50.042;8.436;2023-02-22T01:00:26;16.83;;;14.13;;
32108;SDS011;18624;50.042;8.436;2023-02-22T01:02:57;16.55;;;12.20;;
32108;SDS011;18624;50.042;8.436;2023-02-22T01:05:24;18.15;;;12.55;;
32108;SDS011;18624;50.042;8.436;2023-02-22T01:07:53;18.75;;;13.43;;
32108;SDS011;18624;50.042;8.436;2023-02-22T01:10:22;17.60;;;13.20;;
32108;SDS011;18624;50.042;8.436;2023-02-22T01:12:50;18.48;;;13.57;;
32108;SDS011;18624;50.042;8.436;2023-02-22T01:15:18;14.30;;;11.50;;
32108;SDS011;18624;50.042;8.436;2023-02-22T01:17:47;14.30;;;12.23;;
32108;SDS011;18624;50.042;8.436;2023-02-22T01:20:15;14.23;;;11.93;;
32108;SDS011;18624;50.042;8.436;2023-02-22T01:22:46;22.67;;;15.48;;
32108;SDS011;18624;50.042;8.436;2023-02-22T01:25:21;20.35;;;15.05;;
32108;SDS011;18624;50.042;8.436;2023-02-22T01:27:49;18.98;;;14.77;;
32108;SDS011;18624;50.042;8.436;2023-02-22T01:30:19;21.23;;;15.85;;
32108;SDS011;18624;50.042;8.436;2023-02-22T01:32:49;17.20;;;13.30;;
32108;SDS011;18624;50.042;8.436;2023-02-22T01:35:17;19.45;;;14.90;;
32108;SDS011;18624;50.042;8.436;2023-02-22T01:37:49;20.90;;;15.25;;
32108;SDS011;18624;50.042;8.436;2023-02-22T01:40:21;21.40;;;15.80;;
32108;SDS011;18624;50.042;8.436;2023-02-22T01:42:51;21.23;;;15.77;;
32108;SDS011;18624;50.042;8.436;2023-02-22T01:48:17;20.15;;;15.73;;
32108;SDS011;18624;50.042;8.436;2023-02-22T01:50:49;25.95;;;17.80;;
32108;SDS011;18624;50.042;8.436;2023-02-22T01:53:21;23.13;;;16.92;;
32108;SDS011;18624;50.042;8.436;2023-02-22T01:55:52;16.60;;;12.27;;
32108;SDS011;18624;50.042;8.436;2023-02-22T01:58:20;21.42;;;17.55;;
32108;SDS011;18624;50.042;8.436;2023-02-22T02:00:49;21.08;;;16.00;;
32108;SDS011;18624;50.042;8.436;2023-02-22T02:03:27;20.77;;;16.95;;
32108;SDS011;18624;50.042;8.436;2023-02-22T02:05:57;24.73;;;17.75;;
32108;SDS011;18624;50.042;8.436;2023-02-22T02:08:30;22.05;;;17.23;;
32108;SDS011;18624;50.042;8.436;2023-02-22T02:11:05;22.13;;;17.08;;
32108;SDS011;18624;50.042;8.436;2023-02-22T02:13:34;20.35;;;16.83;;
32108;SDS011;18624;50.042;8.436;2023-02-22T02:16:01;19.77;;;15.95;;
32108;SDS011;18624;50.042;8.436;2023-02-22T02:18:28;23.15;;;15.93;;
32108;SDS011;18624;50.042;8.436;2023-02-22T02:40:51;21.00;;;17.35;;
32108;SDS011;18624;50.042;8.436;2023-02-22T02:43:46;26.00;;;17.00;;
32108;SDS011;18624;50.042;8.436;2023-02-22T02:46:33;20.60;;;16.23;;
32108;SDS011;18624;50.042;8.436;2023-02-22T02:49:04;18.45;;;15.75;;
32108;SDS011;18624;50.042;8.436;2023-02-22T02:51:37;21.38;;;17.60;;
32108;SDS011;18624;50.042;8.436;2023-02-22T02:54:08;19.05;;;15.80;;
32108;SDS011;18624;50.042;8.436;2023-02-22T02:56:36;21.05;;;16.35;;
32108;SDS011;18624;50.042;8.436;2023-02-22T02:59:17;21.63;;;16.33;;
32108;SDS011;18624;50.042;8.436;2023-02-22T03:02:10;21.90;;;16.60;;
32108;SDS011;18624;50.042;8.436;2023-02-22T03:04:47;17.13;;;15.32;;
32108;SDS011;18624;50.042;8.436;2023-02-22T03:07:40;19.27;;;14.93;;
32108;SDS011;18624;50.042;8.436;2023-02-22T03:19:06;19.50;;;15.45;;
32108;SDS011;18624;50.042;8.436;2023-02-22T03:21:47;21.83;;;17.02;;
32108;SDS011;18624;50.042;8.436;2023-02-22T03:27:12;20.63;;;15.90;;
32108;SDS011;18624;50.042;8.436;2023-02-22T03:29:49;18.35;;;15.18;;
32108;SDS011;18624;50.042;8.436;2023-02-22T03:32:20;18.55;;;14.98;;
32108;SDS011;18624;50.042;8.436;2023-02-22T03:34:55;18.83;;;15.05;;
32108;SDS011;18624;50.042;8.436;2023-02-22T03:37:28;18.13;;;15.25;;
32108;SDS011;18624;50.042;8.436;2023-02-22T03:39:59;18.90;;;14.80;;
32108;SDS011;18624;50.042;8.436;2023-02-22T03:45:04;19.55;;;16.50;;
32108;SDS011;18624;50.042;8.436;2023-02-22T03:47:36;14.43;;;12.75;;
32108;SDS011;18624;50.042;8.436;2023-02-22T03:50:07;16.50;;;14.68;;
32108;SDS011;18624;50.042;8.436;2023-02-22T03:52:41;17.80;;;13.90;;
32108;SDS011;18624;50.042;8.436;2023-02-22T03:55:13;16.10;;;13.20;;
32108;SDS011;18624;50.042;8.436;2023-02-22T03:57:44;15.00;;;13.40;;
32108;SDS011;18624;50.042;8.436;2023-02-22T04:00:17;14.63;;;12.05;;
32108;SDS011;18624;50.042;8.436;2023-02-22T04:02:48;15.55;;;13.18;;
32108;SDS011;18624;50.042;8.436;2023-02-22T04:05:18;15.38;;;12.32;;
32108;SDS011;18624;50.042;8.436;2023-02-22T04:07:46;17.98;;;14.25;;
32108;SDS011;18624;50.042;8.436;2023-02-22T04:10:14;17.88;;;14.63;;
32108;SDS011;18624;50.042;8.436;2023-02-22T04:12:41;17.83;;;14.10;;
32108;SDS011;18624;50.042;8.436;2023-02-22T04:15:10;16.15;;;13.10;;
32108;SDS011;18624;50.042;8.436;2023-02-22T04:17:38;15.30;;;13.52;;
32108;SDS011;18624;50.042;8.436;2023-02-22T04:20:07;20.45;;;15.43;;
32108;SDS011;18624;50.042;8.436;2023-02-22T04:22:43;17.98;;;13.13;;
32108;SDS011;18624;50.042;8.436;2023-02-22T04:25:11;19.20;;;13.93;;
32108;SDS011;18624;50.042;8.436;2023-02-22T04:27:38;16.25;;;13.18;;
32108;SDS011;18624;50.042;8.436;2023-02-22T04:30:05;16.67;;;12.98;;
32108;SDS011;18624;50.042;8.436;2023-02-22T04:32:34;13.93;;;12.13;;
32108;SDS011;18624;50.042;8.436;2023-02-22T04:35:01;18.50;;;13.25;;
32108;SDS011;18624;50.042;8.436;2023-02-22T04:37:29;16.45;;;13.55;;
32108;SDS011;18624;50.042;8.436;2023-02-22T04:39:56;19.05;;;15.40;;
32108;SDS011;18624;50.042;8.436;2023-02-22T04:42:22;17.13;;;14.32;;
32108;SDS011;18624;50.042;8.436;2023-02-22T04:44:49;16.73;;;13.95;;
32108;SDS011;18624;50.042;8.436;2023-02-22T04:47:15;20.50;;;15.65;;
32108;SDS011;18624;50.042;8.436;2023-02-22T04:49:42;20.88;;;15.18;;
32108;SDS011;18624;50.042;8.436;2023-02-22T04:52:08;18.67;;;14.45;;
32108;SDS011;18624;50.042;8.436;2023-02-22T04:54:36;22.13;;;16.48;;
32108;SDS011;18624;50.042;8.436;2023-02-22T04:57:03;18.67;;;14.65;;
32108;SDS011;18624;50.042;8.436;2023-02-22T04:59:31;18.48;;;13.90;;
32108;SDS011;18624;50.042;8.436;2023-02-22T05:01:59;20.17;;;15.23;;
32108;SDS011;18624;50.042;8.436;2023-02-22T05:04:26;20.00;;;15.75;;
32108;SDS011;18624;50.042;8.436;2023-02-22T05:06:52;24.15;;;16.33;;
32108;SDS011;18624;50.042;8.436;2023-02-22T05:09:20;19.55;;;15.05;;
32108;SDS011;18624;50.042;8.436;2023-02-22T05:11:46;20.02;;;15.35;;
32108;SDS011;18624;50.042;8.436;2023-02-22T05:14:13;22.75;;;14.70;;
32108;SDS011;18624;50.042;8.436;2023-02-22T05:16:39;20.90;;;15.02;;
32108;SDS011;18624;50.042;8.436;2023-02-22T05:19:06;17.33;;;13.55;;
32108;SDS011;18624;50.042;8.436;2023-02-22T05:21:32;20.05;;;14.60;;
32108;SDS011;18624;50.042;8.436;2023-02-22T05:23:59;17.42;;;13.95;;
32108;SDS011;18624;50.042;8.436;2023-02-22T05:26:25;19.50;;;15.35;;
32108;SDS011;18624;50.042;8.436;2023-02-22T05:28:52;22.50;;;14.88;;
32108;SDS011;18624;50.042;8.436;2023-02-22T05:31:19;21.50;;;14.05;;
32108;SDS011;18624;50.042;8.436;2023-02-22T05:33:45;19.30;;;14.93;;
32108;SDS011;18624;50.042;8.436;2023-02-22T05:36:13;18.63;;;14.77;;
32108;SDS011;18624;50.042;8.436;2023-02-22T05:38:40;18.48;;;14.38;;
32108;SDS011;18624;50.042;8.436;2023-02-22T05:41:08;17.80;;;14.00;;
32108;SDS011;18624;50.042;8.436;2023-02-22T05:43:38;19.38;;;14.10;;
32108;SDS011;18624;50.042;8.436;2023-02-22T05:46:05;17.80;;;14.40;;
32108;SDS011;18624;50.042;8.436;2023-02-22T05:48:32;17.48;;;13.60;;
32108;SDS011;18624;50.042;8.436;2023-02-22T05:50:58;17.90;;;14.95;;
32108;SDS011;18624;50.042;8.436;2023-02-22T05:53:25;19.63;;;15.45;;
32108;SDS011;18624;50.042;8.436;2023-02-22T05:55:52;16.48;;;13.00;;
32108;SDS011;18624;50.042;8.436;2023-02-22T05:58:19;18.05;;;14.65;;
32108;SDS011;18624;50.042;8.436;2023-02-22T06:00:45;17.80;;;14.00;;
32108;SDS011;18624;50.042;8.436;2023-02-22T06:03:12;23.90;;;14.95;;
32108;SDS011;18624;50.042;8.436;2023-02-22T06:05:39;23.88;;;17.35;;
32108;SDS011;18624;50.042;8.436;2023-02-22T06:08:06;28.02;;;21.80;;
32108;SDS011;18624;50.042;8.436;2023-02-22T06:10:33;29.00;;;20.63;;
32108;SDS011;18624;50.042;8.436;2023-02-22T06:13:00;25.33;;;19.52;;
32108;SDS011;18624;50.042;8.436;2023-02-22T06:15:27;25.40;;;19.60;;
32108;SDS011;18624;50.042;8.436;2023-02-22T06:17:54;28.98;;;20.65;;
32108;SDS011;18624;50.042;8.436;2023-02-22T06:20:25;27.80;;;20.88;;
32108;SDS011;18624;50.042;8.436;2023-02-22T06:22:53;27.33;;;19.58;;
32108;SDS011;18624;50.042;8.436;2023-02-22T06:25:22;25.80;;;19.70;;
32108;SDS011;18624;50.042;8.436;2023-02-22T06:27:50;27.88;;;20.65;;
32108;SDS011;18624;50.042;8.436;2023-02-22T06:30:18;26.60;;;20.58;;
32108;SDS011;18624;50.042;8.436;2023-02-22T06:32:47;26.00;;;19.98;;
32108;SDS011;18624;50.042;8.436;2023-02-22T06:35:13;25.42;;;18.95;;
32108;SDS011;18624;50.042;8.436;2023-02-22T06:37:40;21.13;;;16.05;;
32108;SDS011;18624;50.042;8.436;2023-02-22T06:40:08;20.08;;;16.55;;
32108;SDS011;18624;50.042;8.436;2023-02-22T06:42:36;21.42;;;15.88;;
32108;SDS011;18624;50.042;8.436;2023-02-22T06:45:04;20.40;;;14.38;;
32108;SDS011;18624;50.042;8.436;2023-02-22T06:47:30;17.92;;;14.32;;
32108;SDS011;18624;50.042;8.436;2023-02-22T06:49:57;18.08;;;15.07;;
32108;SDS011;18624;50.042;8.436;2023-02-22T06:52:25;47.83;;;31.52;;
32108;SDS011;18624;50.042;8.436;2023-02-22T06:54:52;38.40;;;27.65;;
32108;SDS011;18624;50.042;8.436;2023-02-22T06:57:18;25.02;;;20.33;;
32108;SDS011;18624;50.042;8.436;2023-02-22T06:59:45;21.55;;;15.65;;
32108;SDS011;18624;50.042;8.436;2023-02-22T07:02:11;18.88;;;14.85;;
32108;SDS011;18624;50.042;8.436;2023-02-22T07:04:39;19.30;;;13.88;;
32108;SDS011;18624;50.042;8.436;2023-02-22T07:07:08;18.50;;;13.13;;
32108;SDS011;18624;50.042;8.436;2023-02-22T07:09:35;18.48;;;13.90;;
32108;SDS011;18624;50.042;8.436;2023-02-22T07:12:02;15.80;;;12.40;;
32108;SDS011;18624;50.042;8.436;2023-02-22T07:14:29;15.73;;;12.77;;
32108;SDS011;18624;50.042;8.436;2023-02-22T07:16:55;18.35;;;14.88;;
32108;SDS011;18624;50.042;8.436;2023-02-22T07:19:21;15.90;;;12.55;;
32108;SDS011;18624;50.042;8.436;2023-02-22T07:21:49;17.67;;;13.60;;
32108;SDS011;18624;50.042;8.436;2023-02-22T07:24:16;19.33;;;14.65;;
32108;SDS011;18624;50.042;8.436;2023-02-22T07:26:42;20.75;;;15.18;;
32108;SDS011;18624;50.042;8.436;2023-02-22T07:29:08;16.88;;;12.75;;
32108;SDS011;18624;50.042;8.436;2023-02-22T07:31:38;18.75;;;14.45;;
32108;SDS011;18624;50.042;8.436;2023-02-22T07:34:04;18.58;;;14.32;;
32108;SDS011;18624;50.042;8.436;2023-02-22T07:36:31;16.20;;;13.23;;
32108;SDS011;18624;50.042;8.436;2023-02-22T07:38:58;17.67;;;14.00;;
32108;SDS011;18624;50.042;8.436;2023-02-22T07:41:24;20.00;;;14.90;;
32108;SDS011;18624;50.042;8.436;2023-02-22T07:43:51;27.42;;;19.48;;
32108;SDS011;18624;50.042;8.436;2023-02-22T07:46:17;31.80;;;21.20;;
32108;SDS011;18624;50.042;8.436;2023-02-22T07:48:43;25.05;;;18.95;;
32108;SDS011;18624;50.042;8.436;2023-02-22T07:51:13;28.40;;;20.70;;
32108;SDS011;18624;50.042;8.436;2023-02-22T07:53:40;27.35;;;20.38;;
32108;SDS011;18624;50.042;8.436;2023-02-22T07:56:07;26.23;;;17.75;;
32108;SDS011;18624;50.042;8.436;2023-02-22T07:58:33;24.33;;;18.30;;
32108;SDS011;18624;50.042;8.436;2023-02-22T08:01:00;23.85;;;18.20;;
32108;SDS011;18624;50.042;8.436;2023-02-22T08:03:29;25.98;;;18.83;;
32108;SDS011;18624;50.042;8.436;2023-02-22T08:06:02;25.75;;;17.83;;
32108;SDS011;18624;50.042;8.436;2023-02-22T08:08:31;31.33;;;18.92;;
32108;SDS011;18624;50.042;8.436;2023-02-22T08:10:57;30.00;;;19.90;;
32108;SDS011;18624;50.042;8.436;2023-02-22T08:13:24;28.70;;;18.23;;
32108;SDS011;18624;50.042;8.436;2023-02-22T08:15:51;27.90;;;21.33;;
32108;SDS011;18624;50.042;8.436;2023-02-22T08:18:20;31.35;;;21.02;;
32108;SDS011;18624;50.042;8.436;2023-02-22T08:20:48;29.55;;;20.25;;
32108;SDS011;18624;50.042;8.436;2023-02-22T08:23:17;25.80;;;19.35;;
32108;SDS011;18624;50.042;8.436;2023-02-22T08:25:45;28.55;;;19.52;;
32108;SDS011;18624;50.042;8.436;2023-02-22T08:28:12;26.10;;;19.50;;
32108;SDS011;18624;50.042;8.436;2023-02-22T08:30:41;28.02;;;20.17;;
32108;SDS011;18624;50.042;8.436;2023-02-22T08:33:09;30.15;;;23.08;;
32108;SDS011;18624;50.042;8.436;2023-02-22T08:35:39;30.02;;;20.65;;
32108;SDS011;18624;50.042;8.436;2023-02-22T08:38:07;25.80;;;19.55;;
32108;SDS011;18624;50.042;8.436;2023-02-22T08:40:40;26.88;;;18.25;;
32108;SDS011;18624;50.042;8.436;2023-02-22T08:43:06;25.33;;;18.88;;
32108;SDS011;18624;50.042;8.436;2023-02-22T08:45:33;25.77;;;18.85;;
32108;SDS011;18624;50.042;8.436;2023-02-22T08:47:59;24.65;;;18.95;;
32108;SDS011;18624;50.042;8.436;2023-02-22T08:50:27;34.95;;;19.65;;
32108;SDS011;18624;50.042;8.436;2023-02-22T08:52:57;32.58;;;20.50;;
32108;SDS011;18624;50.042;8.436;2023-02-22T08:55:25;34.50;;;22.52;;
32108;SDS011;18624;50.042;8.436;2023-02-22T08:57:53;34.85;;;21.10;;
32108;SDS011;18624;50.042;8.436;2023-02-22T09:00:20;34.97;;;20.77;;
32108;SDS011;18624;50.042;8.436;2023-02-22T09:02:53;31.98;;;19.67;;
32108;SDS011;18624;50.042;8.436;2023-02-22T09:05:20;36.75;;;22.67;;
32108;SDS011;18624;50.042;8.436;2023-02-22T09:07:46;30.10;;;21.40;;
32108;SDS011;18624;50.042;8.436;2023-02-22T09:10:14;34.38;;;20.23;;
32108;SDS011;18624;50.042;8.436;2023-02-22T09:12:42;41.58;;;23.00;;
32108;SDS011;18624;50.042;8.436;2023-02-22T09:15:09;40.78;;;23.13;;
32108;SDS011;18624;50.042;8.436;2023-02-22T09:17:36;35.97;;;21.52;;
32108;SDS011;18624;50.042;8.436;2023-02-22T09:20:04;34.55;;;22.45;;
32108;SDS011;18624;50.042;8.436;2023-02-22T09:22:32;39.67;;;25.48;;
32108;SDS011;18624;50.042;8.436;2023-02-22T09:24:58;35.28;;;23.83;;
32108;SDS011;18624;50.042;8.436;2023-02-22T09:27:33;42.33;;;25.08;;
32108;SDS011;18624;50.042;8.436;2023-02-22T09:29:59;39.15;;;21.90;;
32108;SDS011;18624;50.042;8.436;2023-02-22T09:32:25;41.00;;;22.10;;
32108;SDS011;18624;50.042;8.436;2023-02-22T09:34:53;36.03;;;21.73;;
32108;SDS011;18624;50.042;8.436;2023-02-22T09:37:20;43.40;;;25.10;;
32108;SDS011;18624;50.042;8.436;2023-02-22T09:39:47;28.90;;;20.00;;
32108;SDS011;18624;50.042;8.436;2023-02-22T09:45:06;43.28;;;25.80;;
32108;SDS011;18624;50.042;8.436;2023-02-22T09:50:12;37.03;;;25.30;;
32108;SDS011;18624;50.042;8.436;2023-02-22T09:52:46;33.95;;;24.23;;
32108;SDS011;18624;50.042;8.436;2023-02-22T09:55:30;35.80;;;23.85;;
32108;SDS011;18624;50.042;8.436;2023-02-22T09:58:00;34.55;;;23.70;;
32108;SDS011;18624;50.042;8.436;2023-02-22T10:00:32;36.65;;;24.05;;
32108;SDS011;18624;50.042;8.436;2023-02-22T10:08:32;43.85;;;26.20;;
32108;SDS011;18624;50.042;8.436;2023-02-22T10:11:03;48.22;;;28.48;;
32108;SDS011;18624;50.042;8.436;2023-02-22T10:13:50;45.58;;;27.00;;
32108;SDS011;18624;50.042;8.436;2023-02-22T10:25:00;47.22;;;28.50;;
32108;SDS011;18624;50.042;8.436;2023-02-22T10:27:38;48.17;;;27.85;;
32108;SDS011;18624;50.042;8.436;2023-02-22T10:30:24;49.45;;;27.85;;
32108;SDS011;18624;50.042;8.436;2023-02-22T10:33:05;44.78;;;26.67;;
32108;SDS011;18624;50.042;8.436;2023-02-22T10:35:40;47.70;;;28.10;;
32108;SDS011;18624;50.042;8.436;2023-02-22T10:40:52;49.08;;;29.77;;
32108;SDS011;18624;50.042;8.436;2023-02-22T10:43:22;52.03;;;27.85;;
32108;SDS011;18624;50.042;8.436;2023-02-22T10:45:49;42.58;;;25.27;;
32108;SDS011;18624;50.042;8.436;2023-02-22T10:48:21;34.42;;;19.40;;
32108;SDS011;18624;50.042;8.436;2023-02-22T10:50:51;50.45;;;28.52;;
32108;SDS011;18624;50.042;8.436;2023-02-22T10:53:22;43.63;;;26.48;;
32108;SDS011;18624;50.042;8.436;2023-02-22T10:56:08;44.83;;;28.25;;
32108;SDS011;18624;50.042;8.436;2023-02-22T10:58:44;47.65;;;28.25;;
32108;SDS011;18624;50.042;8.436;2023-02-22T11:01:21;35.97;;;24.73;;
32108;SDS011;18624;50.042;8.436;2023-02-22T11:04:04;40.70;;;25.02;;
32108;SDS011;18624;50.042;8.436;2023-02-22T11:06:35;45.38;;;28.05;;
32108;SDS011;18624;50.042;8.436;2023-02-22T11:09:03;46.83;;;28.85;;
32108;SDS011;18624;50.042;8.436;2023-02-22T11:14:02;43.67;;;25.98;;
32108;SDS011;18624;50.042;8.436;2023-02-22T11:16:33;43.53;;;26.63;;
32108;SDS011;18624;50.042;8.436;2023-02-22T11:21:52;39.58;;;24.55;;
32108;SDS011;18624;50.042;8.436;2023-02-22T11:24:26;38.85;;;24.25;;
32108;SDS011;18624;50.042;8.436;2023-02-22T11:27:09;44.38;;;25.50;;
32108;SDS011;18624;50.042;8.436;2023-02-22T11:29:49;35.15;;;24.45;;
32108;SDS011;18624;50.042;8.436;2023-02-22T11:32:19;39.22;;;25.40;;
32108;SDS011;18624;50.042;8.436;2023-02-22T11:34:47;33.25;;;24.95;;
32108;SDS011;18624;50.042;8.436;2023-02-22T11:37:34;36.33;;;23.98;;
32108;SDS011;18624;50.042;8.436;2023-02-22T11:40:05;35.25;;;22.98;;
32108;SDS011;18624;50.042;8.436;2023-02-22T11:42:42;35.33;;;24.00;;
32108;SDS011;18624;50.042;8.436;2023-02-22T11:45:14;34.10;;;22.00;;
32108;SDS011;18624;50.042;8.436;2023-02-22T11:53:14;33.53;;;23.88;;
32108;SDS011;18624;50.042;8.436;2023-02-22T12:01:39;26.00;;;21.83;;
32108;SDS011;18624;50.042;8.436;2023-02-22T12:04:25;27.40;;;21.05;;
32108;SDS011;18624;50.042;8.436;2023-02-22T12:07:32;29.52;;;22.02;;
32108;SDS011;18624;50.042;8.436;2023-02-22T12:10:13;31.85;;;23.73;;
32108;SDS011;18624;50.042;8.436;2023-02-22T12:15:58;31.38;;;25.13;;
32108;SDS011;18624;50.042;8.436;2023-02-22T12:21:48;33.20;;;24.08;;
32108;SDS011;18624;50.042;8.436;2023-02-22T12:27:36;32.65;;;25.33;;
32108;SDS011;18624;50.042;8.436;2023-02-22T12:30:11;33.97;;;24.45;;
32108;SDS011;18624;50.042;8.436;2023-02-22T12:32:41;34.50;;;25.50;;
32108;SDS011;18624;50.042;8.436;2023-02-22T12:48:34;32.63;;;24.20;;
32108;SDS011;18624;50.042;8.436;2023-02-22T12:50:53;36.25;;;26.50;;
32108;SDS011;18624;50.042;8.436;2023-02-22T12:53:30;33.92;;;26.48;;
32108;SDS011;18624;50.042;8.436;2023-02-22T12:58:44;37.88;;;26.80;;
32108;SDS011;18624;50.042;8.436;2023-02-22T13:01:22;34.38;;;25.67;;
32108;SDS011;18624;50.042;8.436;2023-02-22T13:03:52;34.05;;;25.67;;
32108;SDS011;18624;50.042;8.436;2023-02-22T13:06:30;36.35;;;26.00;;
32108;SDS011;18624;50.042;8.436;2023-02-22T13:14:40;32.80;;;24.42;;
32108;SDS011;18624;50.042;8.436;2023-02-22T13:19:59;32.53;;;23.42;;
32108;SDS011;18624;50.042;8.436;2023-02-22T13:25:52;35.95;;;24.48;;
32108;SDS011;18624;50.042;8.436;2023-02-22T13:28:38;31.17;;;23.48;;
32108;SDS011;18624;50.042;8.436;2023-02-22T13:34:02;35.03;;;26.33;;
32108;SDS011;18624;50.042;8.436;2023-02-22T13:42:56;26.95;;;21.10;;
32108;SDS011;18624;50.042;8.436;2023-02-22T13:54:20;26.35;;;22.25;;
32108;SDS011;18624;50.042;8.436;2023-02-22T13:56:49;33.13;;;22.15;;
32108;SDS011;18624;50.042;8.436;2023-02-22T14:02:02;29.35;;;22.17;;
32108;SDS011;18624;50.042;8.436;2023-02-22T14:09:45;31.10;;;21.52;;
32108;SDS011;18624;50.042;8.436;2023-02-22T14:18:01;32.05;;;23.13;;
32108;SDS011;18624;50.042;8.436;2023-02-22T14:20:34;30.48;;;23.30;;
32108;SDS011;18624;50.042;8.436;2023-02-22T14:26:52;29.30;;;20.75;;
32108;SDS011;18624;50.042;8.436;2023-02-22T14:39:51;28.83;;;22.13;;
32108;SDS011;18624;50.042;8.436;2023-02-22T14:44:54;43.33;;;31.90;;
32108;SDS011;18624;50.042;8.436;2023-02-22T14:47:37;35.03;;;25.75;;
32108;SDS011;18624;50.042;8.436;2023-02-22T14:50:18;29.65;;;22.13;;
32108;SDS011;18624;50.042;8.436;2023-02-22T14:53:35;27.33;;;21.70;;
32108;SDS011;18624;50.042;8.436;2023-02-22T14:55:42;34.30;;;24.50;;
32108;SDS011;18624;50.042;8.436;2023-02-22T15:00:48;35.17;;;25.42;;
32108;SDS011;18624;50.042;8.436;2023-02-22T15:05:48;31.83;;;24.65;;
32108;SDS011;18624;50.042;8.436;2023-02-22T15:08:17;30.58;;;24.17;;
32108;SDS011;18624;50.042;8.436;2023-02-22T15:10:53;38.20;;;26.05;;
32108;SDS011;18624;50.042;8.436;2023-02-22T15:13:21;35.25;;;25.60;;
32108;SDS011;18624;50.042;8.436;2023-02-22T15:15:54;30.83;;;24.27;;
32108;SDS011;18624;50.042;8.436;2023-02-22T15:18:28;36.05;;;26.55;;
32108;SDS011;18624;50.042;8.436;2023-02-22T15:21:03;32.63;;;23.73;;
32108;SDS011;18624;50.042;8.436;2023-02-22T15:26:20;34.67;;;24.52;;
32108;SDS011;18624;50.042;8.436;2023-02-22T15:28:56;37.13;;;25.98;;
32108;SDS011;18624;50.042;8.436;2023-02-22T15:31:34;33.40;;;24.63;;
32108;SDS011;18624;50.042;8.436;2023-02-22T15:34:36;32.97;;;24.27;;
32108;SDS011;18624;50.042;8.436;2023-02-22T15:36:57;29.35;;;21.77;;
32108;SDS011;18624;50.042;8.436;2023-02-22T15:39:39;32.00;;;23.55;;
32108;SDS011;18624;50.042;8.436;2023-02-22T15:42:10;32.22;;;21.98;;
32108;SDS011;18624;50.042;8.436;2023-02-22T15:44:44;29.90;;;23.15;;
32108;SDS011;18624;50.042;8.436;2023-02-22T15:47:15;28.73;;;20.58;;
32108;SDS011;18624;50.042;8.436;2023-02-22T15:52:58;26.77;;;19.65;;
32108;SDS011;18624;50.042;8.436;2023-02-22T15:55:37;32.95;;;22.65;;
32108;SDS011;18624;50.042;8.436;2023-02-22T15:58:27;31.70;;;22.17;;
32108;SDS011;18624;50.042;8.436;2023-02-22T16:01:00;30.65;;;22.33;;
32108;SDS011;18624;50.042;8.436;2023-02-22T16:03:42;31.52;;;22.90;;
32108;SDS011;18624;50.042;8.436;2023-02-22T16:06:23;31.52;;;23.23;;
32108;SDS011;18624;50.042;8.436;2023-02-22T16:08:55;30.23;;;23.42;;
32108;SDS011;18624;50.042;8.436;2023-02-22T16:11:33;28.63;;;22.20;;
32108;SDS011;18624;50.042;8.436;2023-02-22T16:14:05;26.40;;;21.70;;
32108;SDS011;18624;50.042;8.436;2023-02-22T16:16:49;27.00;;;21.10;;
32108;SDS011;18624;50.042;8.436;2023-02-22T16:21:49;26.25;;;20.27;;
32108;SDS011;18624;50.042;8.436;2023-02-22T16:24:28;24.75;;;20.55;;
32108;SDS011;18624;50.042;8.436;2023-02-22T16:27:16;28.77;;;22.52;;
32108;SDS011;18624;50.042;8.436;2023-02-22T16:30:04;30.67;;;21.48;;
32108;SDS011;18624;50.042;8.436;2023-02-22T16:32:49;30.30;;;22.15;;
32108;SDS011;18624;50.042;8.436;2023-02-22T16:35:16;32.33;;;22.70;;
32108;SDS011;18624;50.042;8.436;2023-02-22T16:37:50;29.35;;;22.02;;
32108;SDS011;18624;50.042;8.436;2023-02-22T16:40:19;24.98;;;19.70;;
32108;SDS011;18624;50.042;8.436;2023-02-22T16:42:47;26.30;;;20.92;;
32108;SDS011;18624;50.042;8.436;2023-02-22T16:45:14;26.15;;;21.05;;
32108;SDS011;18624;50.042;8.436;2023-02-22T16:47:41;28.63;;;22.83;;
32108;SDS011;18624;50.042;8.436;2023-02-22T16:50:08;28.67;;;21.23;;
32108;SDS011;18624;50.042;8.436;2023-02-22T16:52:35;33.03;;;24.55;;
32108;SDS011;18624;50.042;8.436;2023-02-22T16:55:05;30.42;;;23.02;;
32108;SDS011;18624;50.042;8.436;2023-02-22T16:57:35;28.52;;;22.90;;
32108;SDS011;18624;50.042;8.436;2023-02-22T17:00:03;25.90;;;20.55;;
32108;SDS011;18624;50.042;8.436;2023-02-22T17:02:38;29.50;;;21.63;;
32108;SDS011;18624;50.042;8.436;2023-02-22T17:05:05;30.65;;;23.60;;
32108;SDS011;18624;50.042;8.436;2023-02-22T17:07:32;46.80;;;27.45;;
32108;SDS011;18624;50.042;8.436;2023-02-22T17:09:59;51.75;;;28.52;;
32108;SDS011;18624;50.042;8.436;2023-02-22T17:12:26;41.65;;;26.35;;
32108;SDS011;18624;50.042;8.436;2023-02-22T17:14:54;51.53;;;30.88;;
32108;SDS011;18624;50.042;8.436;2023-02-22T17:17:21;41.90;;;27.08;;
32108;SDS011;18624;50.042;8.436;2023-02-22T17:19:48;40.35;;;28.15;;
32108;SDS011;18624;50.042;8.436;2023-02-22T17:22:18;38.13;;;26.00;;
32108;SDS011;18624;50.042;8.436;2023-02-22T17:24:46;36.13;;;26.45;;
32108;SDS011;18624;50.042;8.436;2023-02-22T17:27:13;43.67;;;31.02;;
32108;SDS011;18624;50.042;8.436;2023-02-22T17:29:39;41.55;;;29.67;;
32108;SDS011;18624;50.042;8.436;2023-02-22T17:32:10;41.28;;;30.80;;
32108;SDS011;18624;50.042;8.436;2023-02-22T17:34:37;48.70;;;34.30;;
32108;SDS011;18624;50.042;8.436;2023-02-22T17:37:03;46.42;;;32.10;;
32108;SDS011;18624;50.042;8.436;2023-02-22T17:39:30;43.20;;;33.95;;